Terminal Aerodrome Forecast
Issued by NWS Wilmington, OH

Home | Current Version | Previous Version | Text Only | Print | Product List | Glossary On
Versions: 1 2 3 4 5 6 7 8 9 10 11 12 13 14 15 16 17 18 19
000
FTUS41 KILN 251453 AAB
TAFILN
TAF AMD
KILN 251453Z 2515/2612 33008KT 1 1/2SM -RA BR OVC007
     FM251700 34012KT P6SM OVC015
     FM252000 33010KT P6SM BKN035
     FM260200 35005KT P6SM FEW035 BKN250=

USA.gov is the U.S. government's official web portal to all federal, state and local government web resources and services.